sensor_id;sensor_type;location;lat;lon;timestamp;P1;durP1;ratioP1;P2;durP2;ratioP2
64857;SDS011;51335;51.148;6.950;2022-08-19T00:00:10;13.07;;;10.80;;
64857;SDS011;51335;51.148;6.950;2022-08-19T00:00:41;13.25;;;10.25;;
64857;SDS011;51335;51.148;6.950;2022-08-19T00:01:11;11.68;;;10.48;;
64857;SDS011;51335;51.148;6.950;2022-08-19T00:01:42;11.52;;;9.73;;
64857;SDS011;51335;51.148;6.950;2022-08-19T00:02:14;10.73;;;9.27;;
64857;SDS011;51335;51.148;6.950;2022-08-19T00:02:45;10.68;;;9.57;;
64857;SDS011;51335;51.148;6.950;2022-08-19T00:03:15;12.68;;;9.52;;
64857;SDS011;51335;51.148;6.950;2022-08-19T00:03:46;11.10;;;9.73;;
64857;SDS011;51335;51.148;6.950;2022-08-19T00:04:17;12.05;;;9.35;;
64857;SDS011;51335;51.148;6.950;2022-08-19T00:04:49;11.27;;;9.95;;
64857;SDS011;51335;51.148;6.950;2022-08-19T00:05:20;10.85;;;9.73;;
64857;SDS011;51335;51.148;6.950;2022-08-19T00:05:50;9.50;;;8.48;;
64857;SDS011;51335;51.148;6.950;2022-08-19T00:06:20;9.82;;;8.85;;
64857;SDS011;51335;51.148;6.950;2022-08-19T00:06:51;9.95;;;8.93;;
64857;SDS011;51335;51.148;6.950;2022-08-19T00:07:22;10.88;;;9.57;;
64857;SDS011;51335;51.148;6.950;2022-08-19T00:07:52;12.32;;;9.20;;
64857;SDS011;51335;51.148;6.950;2022-08-19T00:08:22;11.10;;;9.65;;
64857;SDS011;51335;51.148;6.950;2022-08-19T00:08:53;12.25;;;9.80;;
64857;SDS011;51335;51.148;6.950;2022-08-19T00:09:23;11.88;;;9.95;;
64857;SDS011;51335;51.148;6.950;2022-08-19T00:09:54;11.75;;;9.77;;
64857;SDS011;51335;51.148;6.950;2022-08-19T00:10:24;15.07;;;9.40;;
64857;SDS011;51335;51.148;6.950;2022-08-19T00:10:55;10.85;;;8.73;;
64857;SDS011;51335;51.148;6.950;2022-08-19T00:11:25;12.27;;;8.88;;
64857;SDS011;51335;51.148;6.950;2022-08-19T00:11:56;14.45;;;9.48;;
64857;SDS011;51335;51.148;6.950;2022-08-19T00:12:27;11.77;;;9.30;;
64857;SDS011;51335;51.148;6.950;2022-08-19T00:12:58;12.98;;;9.68;;
64857;SDS011;51335;51.148;6.950;2022-08-19T00:13:28;10.57;;;9.48;;
64857;SDS011;51335;51.148;6.950;2022-08-19T00:13:58;12.30;;;9.10;;
64857;SDS011;51335;51.148;6.950;2022-08-19T00:14:29;11.43;;;9.55;;
64857;SDS011;51335;51.148;6.950;2022-08-19T00:14:59;12.50;;;9.52;;
64857;SDS011;51335;51.148;6.950;2022-08-19T00:15:30;11.35;;;9.60;;
64857;SDS011;51335;51.148;6.950;2022-08-19T00:16:00;10.63;;;9.20;;
64857;SDS011;51335;51.148;6.950;2022-08-19T00:16:32;11.90;;;10.40;;
64857;SDS011;51335;51.148;6.950;2022-08-19T00:17:03;11.82;;;9.75;;
64857;SDS011;51335;51.148;6.950;2022-08-19T00:17:34;13.00;;;9.60;;
64857;SDS011;51335;51.148;6.950;2022-08-19T00:18:04;13.05;;;10.50;;
64857;SDS011;51335;51.148;6.950;2022-08-19T00:18:34;12.00;;;9.98;;
64857;SDS011;51335;51.148;6.950;2022-08-19T00:19:05;11.23;;;9.75;;
64857;SDS011;51335;51.148;6.950;2022-08-19T00:19:36;15.00;;;9.40;;
64857;SDS011;51335;51.148;6.950;2022-08-19T00:20:07;12.70;;;9.73;;
64857;SDS011;51335;51.148;6.950;2022-08-19T00:20:39;10.95;;;9.57;;
64857;SDS011;51335;51.148;6.950;2022-08-19T00:21:09;15.23;;;10.38;;
64857;SDS011;51335;51.148;6.950;2022-08-19T00:21:39;11.48;;;10.20;;
64857;SDS011;51335;51.148;6.950;2022-08-19T00:22:10;12.82;;;10.52;;
64857;SDS011;51335;51.148;6.950;2022-08-19T00:22:40;11.60;;;9.20;;
64857;SDS011;51335;51.148;6.950;2022-08-19T00:23:10;12.13;;;10.10;;
64857;SDS011;51335;51.148;6.950;2022-08-19T00:23:41;11.73;;;9.52;;
64857;SDS011;51335;51.148;6.950;2022-08-19T00:24:13;11.55;;;9.73;;
64857;SDS011;51335;51.148;6.950;2022-08-19T00:24:44;11.98;;;9.45;;
64857;SDS011;51335;51.148;6.950;2022-08-19T00:25:15;12.85;;;10.27;;
64857;SDS011;51335;51.148;6.950;2022-08-19T00:25:46;13.40;;;10.60;;
64857;SDS011;51335;51.148;6.950;2022-08-19T00:26:16;11.52;;;9.93;;
64857;SDS011;51335;51.148;6.950;2022-08-19T00:26:47;12.02;;;10.05;;
64857;SDS011;51335;51.148;6.950;2022-08-19T00:27:17;16.48;;;10.63;;
64857;SDS011;51335;51.148;6.950;2022-08-19T00:27:47;15.02;;;11.43;;
64857;SDS011;51335;51.148;6.950;2022-08-19T00:28:18;14.50;;;11.65;;
64857;SDS011;51335;51.148;6.950;2022-08-19T00:28:48;14.95;;;11.13;;
64857;SDS011;51335;51.148;6.950;2022-08-19T00:29:20;12.73;;;11.05;;
64857;SDS011;51335;51.148;6.950;2022-08-19T00:29:51;14.35;;;11.60;;
64857;SDS011;51335;51.148;6.950;2022-08-19T00:30:21;14.57;;;11.30;;
64857;SDS011;51335;51.148;6.950;2022-08-19T00:30:51;12.85;;;10.68;;
64857;SDS011;51335;51.148;6.950;2022-08-19T00:31:22;13.88;;;10.88;;
64857;SDS011;51335;51.148;6.950;2022-08-19T00:31:52;13.45;;;10.65;;
64857;SDS011;51335;51.148;6.950;2022-08-19T00:32:24;12.25;;;11.02;;
64857;SDS011;51335;51.148;6.950;2022-08-19T00:32:54;13.18;;;10.80;;
64857;SDS011;51335;51.148;6.950;2022-08-19T00:33:25;16.20;;;11.02;;
64857;SDS011;51335;51.148;6.950;2022-08-19T00:33:55;12.45;;;10.38;;
64857;SDS011;51335;51.148;6.950;2022-08-19T00:34:26;13.75;;;11.20;;
64857;SDS011;51335;51.148;6.950;2022-08-19T00:34:56;13.32;;;10.60;;
64857;SDS011;51335;51.148;6.950;2022-08-19T00:35:27;13.43;;;11.50;;
64857;SDS011;51335;51.148;6.950;2022-08-19T00:35:57;14.75;;;11.07;;
64857;SDS011;51335;51.148;6.950;2022-08-19T00:36:27;12.77;;;10.75;;
64857;SDS011;51335;51.148;6.950;2022-08-19T00:36:58;11.90;;;10.70;;
64857;SDS011;51335;51.148;6.950;2022-08-19T00:37:28;14.32;;;11.50;;
64857;SDS011;51335;51.148;6.950;2022-08-19T00:37:58;12.75;;;11.25;;
64857;SDS011;51335;51.148;6.950;2022-08-19T00:38:29;16.40;;;11.65;;
64857;SDS011;51335;51.148;6.950;2022-08-19T00:39:00;14.07;;;11.50;;
64857;SDS011;51335;51.148;6.950;2022-08-19T00:39:31;13.05;;;11.50;;
64857;SDS011;51335;51.148;6.950;2022-08-19T00:40:04;15.23;;;12.15;;
64857;SDS011;51335;51.148;6.950;2022-08-19T00:40:36;13.43;;;11.32;;
64857;SDS011;51335;51.148;6.950;2022-08-19T00:41:06;13.90;;;11.52;;
64857;SDS011;51335;51.148;6.950;2022-08-19T00:41:38;13.15;;;11.85;;
64857;SDS011;51335;51.148;6.950;2022-08-19T00:42:09;13.63;;;11.43;;
64857;SDS011;51335;51.148;6.950;2022-08-19T00:42:39;14.77;;;12.15;;
64857;SDS011;51335;51.148;6.950;2022-08-19T00:43:10;14.10;;;11.93;;
64857;SDS011;51335;51.148;6.950;2022-08-19T00:43:41;14.60;;;11.82;;
64857;SDS011;51335;51.148;6.950;2022-08-19T00:44:13;14.13;;;12.20;;
64857;SDS011;51335;51.148;6.950;2022-08-19T00:44:51;12.73;;;10.88;;
64857;SDS011;51335;51.148;6.950;2022-08-19T00:45:24;12.43;;;11.07;;
64857;SDS011;51335;51.148;6.950;2022-08-19T00:45:57;15.52;;;11.82;;
64857;SDS011;51335;51.148;6.950;2022-08-19T00:46:28;15.38;;;12.10;;
64857;SDS011;51335;51.148;6.950;2022-08-19T00:46:58;14.32;;;11.73;;
64857;SDS011;51335;51.148;6.950;2022-08-19T00:47:29;13.77;;;11.40;;
64857;SDS011;51335;51.148;6.950;2022-08-19T00:47:59;13.88;;;11.85;;
64857;SDS011;51335;51.148;6.950;2022-08-19T00:48:30;15.77;;;12.18;;
64857;SDS011;51335;51.148;6.950;2022-08-19T00:49:02;15.63;;;12.52;;
64857;SDS011;51335;51.148;6.950;2022-08-19T00:49:49;14.63;;;13.10;;
64857;SDS011;51335;51.148;6.950;2022-08-19T00:50:22;15.07;;;12.15;;
64857;SDS011;51335;51.148;6.950;2022-08-19T00:50:52;17.10;;;12.80;;
64857;SDS011;51335;51.148;6.950;2022-08-19T00:51:25;15.73;;;12.65;;
64857;SDS011;51335;51.148;6.950;2022-08-19T00:51:59;14.45;;;11.32;;
64857;SDS011;51335;51.148;6.950;2022-08-19T00:52:35;14.65;;;11.50;;
64857;SDS011;51335;51.148;6.950;2022-08-19T00:53:09;13.00;;;11.63;;
64857;SDS011;51335;51.148;6.950;2022-08-19T00:53:41;14.23;;;11.48;;
64857;SDS011;51335;51.148;6.950;2022-08-19T00:54:12;14.75;;;11.80;;
64857;SDS011;51335;51.148;6.950;2022-08-19T00:54:43;13.45;;;12.02;;
64857;SDS011;51335;51.148;6.950;2022-08-19T00:55:16;13.68;;;11.00;;
64857;SDS011;51335;51.148;6.950;2022-08-19T00:55:52;12.13;;;10.82;;
64857;SDS011;51335;51.148;6.950;2022-08-19T00:56:24;14.57;;;12.02;;
64857;SDS011;51335;51.148;6.950;2022-08-19T00:56:55;12.18;;;10.88;;
64857;SDS011;51335;51.148;6.950;2022-08-19T00:57:35;15.85;;;10.60;;
64857;SDS011;51335;51.148;6.950;2022-08-19T00:58:09;15.13;;;12.80;;
64857;SDS011;51335;51.148;6.950;2022-08-19T00:58:42;16.80;;;13.65;;
64857;SDS011;51335;51.148;6.950;2022-08-19T00:59:14;18.83;;;13.50;;
64857;SDS011;51335;51.148;6.950;2022-08-19T00:59:46;15.98;;;12.50;;
64857;SDS011;51335;51.148;6.950;2022-08-19T01:00:22;13.98;;;12.57;;
64857;SDS011;51335;51.148;6.950;2022-08-19T01:00:54;15.80;;;12.38;;
64857;SDS011;51335;51.148;6.950;2022-08-19T01:01:24;14.93;;;12.20;;
64857;SDS011;51335;51.148;6.950;2022-08-19T01:01:55;14.95;;;12.40;;
64857;SDS011;51335;51.148;6.950;2022-08-19T01:02:26;13.98;;;12.43;;
64857;SDS011;51335;51.148;6.950;2022-08-19T01:02:57;14.30;;;12.68;;
64857;SDS011;51335;51.148;6.950;2022-08-19T01:03:27;13.77;;;12.25;;
64857;SDS011;51335;51.148;6.950;2022-08-19T01:03:58;14.82;;;12.45;;
64857;SDS011;51335;51.148;6.950;2022-08-19T01:04:28;14.63;;;12.02;;
64857;SDS011;51335;51.148;6.950;2022-08-19T01:04:59;14.15;;;12.15;;
64857;SDS011;51335;51.148;6.950;2022-08-19T01:05:32;14.40;;;12.30;;
64857;SDS011;51335;51.148;6.950;2022-08-19T01:06:02;15.95;;;12.85;;
64857;SDS011;51335;51.148;6.950;2022-08-19T01:06:33;14.80;;;13.20;;
64857;SDS011;51335;51.148;6.950;2022-08-19T01:07:05;17.75;;;13.35;;
64857;SDS011;51335;51.148;6.950;2022-08-19T01:07:37;14.32;;;12.10;;
64857;SDS011;51335;51.148;6.950;2022-08-19T01:08:09;15.98;;;13.10;;
64857;SDS011;51335;51.148;6.950;2022-08-19T01:08:40;16.35;;;12.73;;
64857;SDS011;51335;51.148;6.950;2022-08-19T01:09:10;14.27;;;12.75;;
64857;SDS011;51335;51.148;6.950;2022-08-19T01:09:40;15.35;;;12.30;;
64857;SDS011;51335;51.148;6.950;2022-08-19T01:10:12;13.40;;;12.00;;
64857;SDS011;51335;51.148;6.950;2022-08-19T01:10:48;13.52;;;12.13;;
64857;SDS011;51335;51.148;6.950;2022-08-19T01:11:22;13.48;;;11.98;;
64857;SDS011;51335;51.148;6.950;2022-08-19T01:11:52;13.68;;;12.23;;
64857;SDS011;51335;51.148;6.950;2022-08-19T01:12:22;14.27;;;12.00;;
64857;SDS011;51335;51.148;6.950;2022-08-19T01:12:53;16.50;;;12.23;;
64857;SDS011;51335;51.148;6.950;2022-08-19T01:13:28;16.15;;;11.98;;
64857;SDS011;51335;51.148;6.950;2022-08-19T01:14:01;13.60;;;12.20;;
64857;SDS011;51335;51.148;6.950;2022-08-19T01:14:32;15.20;;;13.07;;
64857;SDS011;51335;51.148;6.950;2022-08-19T01:15:04;15.30;;;12.85;;
64857;SDS011;51335;51.148;6.950;2022-08-19T01:15:42;16.80;;;12.63;;
64857;SDS011;51335;51.148;6.950;2022-08-19T01:16:15;15.23;;;12.20;;
64857;SDS011;51335;51.148;6.950;2022-08-19T01:16:47;13.73;;;12.32;;
64857;SDS011;51335;51.148;6.950;2022-08-19T01:17:17;15.18;;;12.45;;
64857;SDS011;51335;51.148;6.950;2022-08-19T01:17:49;15.38;;;11.90;;
64857;SDS011;51335;51.148;6.950;2022-08-19T01:18:20;13.70;;;12.35;;
64857;SDS011;51335;51.148;6.950;2022-08-19T01:18:51;13.55;;;12.15;;
64857;SDS011;51335;51.148;6.950;2022-08-19T01:19:24;15.93;;;12.57;;
64857;SDS011;51335;51.148;6.950;2022-08-19T01:19:58;15.52;;;12.15;;
64857;SDS011;51335;51.148;6.950;2022-08-19T01:20:28;15.77;;;12.77;;
64857;SDS011;51335;51.148;6.950;2022-08-19T01:21:00;15.30;;;12.77;;
64857;SDS011;51335;51.148;6.950;2022-08-19T01:21:45;15.20;;;12.35;;
64857;SDS011;51335;51.148;6.950;2022-08-19T01:23:18;16.02;;;12.20;;
64857;SDS011;51335;51.148;6.950;2022-08-19T01:23:48;18.42;;;13.60;;
64857;SDS011;51335;51.148;6.950;2022-08-19T01:24:18;15.13;;;13.20;;
64857;SDS011;51335;51.148;6.950;2022-08-19T01:24:49;14.23;;;12.68;;
64857;SDS011;51335;51.148;6.950;2022-08-19T01:25:22;15.90;;;12.82;;
64857;SDS011;51335;51.148;6.950;2022-08-19T01:26:02;17.80;;;13.05;;
64857;SDS011;51335;51.148;6.950;2022-08-19T01:26:37;16.33;;;12.57;;
64857;SDS011;51335;51.148;6.950;2022-08-19T01:27:11;14.35;;;12.85;;
64857;SDS011;51335;51.148;6.950;2022-08-19T01:27:43;15.35;;;12.40;;
64857;SDS011;51335;51.148;6.950;2022-08-19T01:28:17;14.63;;;13.05;;
64857;SDS011;51335;51.148;6.950;2022-08-19T01:28:54;14.63;;;13.02;;
64857;SDS011;51335;51.148;6.950;2022-08-19T01:29:26;14.80;;;13.25;;
64857;SDS011;51335;51.148;6.950;2022-08-19T01:29:56;15.35;;;12.27;;
64857;SDS011;51335;51.148;6.950;2022-08-19T01:30:32;13.18;;;11.75;;
64857;SDS011;51335;51.148;6.950;2022-08-19T01:31:04;14.63;;;12.23;;
64857;SDS011;51335;51.148;6.950;2022-08-19T01:31:35;15.13;;;13.02;;
64857;SDS011;51335;51.148;6.950;2022-08-19T01:32:06;15.32;;;13.00;;
64857;SDS011;51335;51.148;6.950;2022-08-19T01:32:38;14.60;;;12.68;;
64857;SDS011;51335;51.148;6.950;2022-08-19T01:33:09;14.93;;;13.20;;
64857;SDS011;51335;51.148;6.950;2022-08-19T01:33:39;14.15;;;12.57;;
64857;SDS011;51335;51.148;6.950;2022-08-19T01:34:09;14.13;;;12.73;;
64857;SDS011;51335;51.148;6.950;2022-08-19T01:34:40;14.80;;;12.70;;
64857;SDS011;51335;51.148;6.950;2022-08-19T01:35:11;15.48;;;12.57;;
64857;SDS011;51335;51.148;6.950;2022-08-19T01:35:42;14.63;;;12.90;;
64857;SDS011;51335;51.148;6.950;2022-08-19T01:36:14;15.57;;;12.95;;
64857;SDS011;51335;51.148;6.950;2022-08-19T01:37:06;13.50;;;12.02;;
64857;SDS011;51335;51.148;6.950;2022-08-19T01:37:42;14.55;;;12.18;;
64857;SDS011;51335;51.148;6.950;2022-08-19T01:38:21;15.07;;;11.57;;
64857;SDS011;51335;51.148;6.950;2022-08-19T01:38:54;13.88;;;11.65;;
64857;SDS011;51335;51.148;6.950;2022-08-19T01:39:25;14.15;;;12.52;;
64857;SDS011;51335;51.148;6.950;2022-08-19T01:39:56;14.90;;;11.93;;
64857;SDS011;51335;51.148;6.950;2022-08-19T01:40:28;14.23;;;12.52;;
64857;SDS011;51335;51.148;6.950;2022-08-19T01:41:00;13.50;;;12.10;;
64857;SDS011;51335;51.148;6.950;2022-08-19T01:41:30;13.90;;;11.82;;
64857;SDS011;51335;51.148;6.950;2022-08-19T01:42:01;19.48;;;12.30;;
64857;SDS011;51335;51.148;6.950;2022-08-19T01:42:31;14.60;;;12.40;;
64857;SDS011;51335;51.148;6.950;2022-08-19T01:43:02;15.68;;;12.32;;
64857;SDS011;51335;51.148;6.950;2022-08-19T01:43:32;13.07;;;11.68;;
64857;SDS011;51335;51.148;6.950;2022-08-19T01:44:04;14.10;;;11.65;;
64857;SDS011;51335;51.148;6.950;2022-08-19T01:44:36;13.35;;;11.43;;
64857;SDS011;51335;51.148;6.950;2022-08-19T01:45:08;12.98;;;11.43;;
64857;SDS011;51335;51.148;6.950;2022-08-19T01:45:39;15.23;;;11.52;;
64857;SDS011;51335;51.148;6.950;2022-08-19T01:46:09;13.68;;;11.93;;
64857;SDS011;51335;51.148;6.950;2022-08-19T01:46:40;13.25;;;11.52;;
64857;SDS011;51335;51.148;6.950;2022-08-19T01:47:12;12.90;;;11.60;;
64857;SDS011;51335;51.148;6.950;2022-08-19T01:47:42;13.90;;;12.25;;
64857;SDS011;51335;51.148;6.950;2022-08-19T01:48:13;12.93;;;11.63;;
64857;SDS011;51335;51.148;6.950;2022-08-19T01:48:44;14.00;;;11.52;;
64857;SDS011;51335;51.148;6.950;2022-08-19T01:49:17;13.00;;;11.65;;
64857;SDS011;51335;51.148;6.950;2022-08-19T01:49:49;13.93;;;11.93;;
64857;SDS011;51335;51.148;6.950;2022-08-19T01:50:19;14.30;;;11.95;;
64857;SDS011;51335;51.148;6.950;2022-08-19T01:50:50;14.95;;;11.32;;
64857;SDS011;51335;51.148;6.950;2022-08-19T01:51:20;16.00;;;12.40;;
64857;SDS011;51335;51.148;6.950;2022-08-19T01:51:51;13.88;;;11.93;;
64857;SDS011;51335;51.148;6.950;2022-08-19T01:52:21;15.55;;;11.98;;
64857;SDS011;51335;51.148;6.950;2022-08-19T01:52:52;18.45;;;11.73;;
64857;SDS011;51335;51.148;6.950;2022-08-19T01:53:22;13.32;;;11.55;;
64857;SDS011;51335;51.148;6.950;2022-08-19T01:53:53;18.98;;;12.23;;
64857;SDS011;51335;51.148;6.950;2022-08-19T01:54:24;16.23;;;12.63;;
64857;SDS011;51335;51.148;6.950;2022-08-19T01:54:54;14.30;;;11.52;;
64857;SDS011;51335;51.148;6.950;2022-08-19T01:55:25;16.70;;;11.77;;
64857;SDS011;51335;51.148;6.950;2022-08-19T01:55:55;15.63;;;12.35;;
64857;SDS011;51335;51.148;6.950;2022-08-19T01:56:26;14.90;;;12.15;;
64857;SDS011;51335;51.148;6.950;2022-08-19T01:56:58;14.52;;;11.93;;
64857;SDS011;51335;51.148;6.950;2022-08-19T01:57:32;14.07;;;11.95;;
64857;SDS011;51335;51.148;6.950;2022-08-19T01:58:03;18.08;;;13.52;;
64857;SDS011;51335;51.148;6.950;2022-08-19T01:58:36;15.15;;;12.75;;
64857;SDS011;51335;51.148;6.950;2022-08-19T01:59:12;16.08;;;12.93;;
64857;SDS011;51335;51.148;6.950;2022-08-19T01:59:45;20.90;;;12.98;;
64857;SDS011;51335;51.148;6.950;2022-08-19T02:00:17;17.60;;;13.05;;
64857;SDS011;51335;51.148;6.950;2022-08-19T02:00:50;16.77;;;12.68;;
64857;SDS011;51335;51.148;6.950;2022-08-19T02:01:20;16.17;;;12.77;;
64857;SDS011;51335;51.148;6.950;2022-08-19T02:01:50;16.08;;;13.00;;
64857;SDS011;51335;51.148;6.950;2022-08-19T02:02:21;14.85;;;13.35;;
64857;SDS011;51335;51.148;6.950;2022-08-19T02:02:51;14.50;;;12.38;;
64857;SDS011;51335;51.148;6.950;2022-08-19T02:03:21;18.10;;;12.93;;
64857;SDS011;51335;51.148;6.950;2022-08-19T02:03:52;14.30;;;11.60;;
64857;SDS011;51335;51.148;6.950;2022-08-19T02:04:22;19.23;;;12.40;;
64857;SDS011;51335;51.148;6.950;2022-08-19T02:04:52;14.98;;;11.23;;
64857;SDS011;51335;51.148;6.950;2022-08-19T02:05:23;13.43;;;12.02;;
64857;SDS011;51335;51.148;6.950;2022-08-19T02:05:55;15.88;;;12.35;;
64857;SDS011;51335;51.148;6.950;2022-08-19T02:06:27;15.05;;;12.82;;
64857;SDS011;51335;51.148;6.950;2022-08-19T02:06:58;16.67;;;12.50;;
64857;SDS011;51335;51.148;6.950;2022-08-19T02:07:28;16.48;;;13.02;;
64857;SDS011;51335;51.148;6.950;2022-08-19T02:07:58;18.15;;;13.15;;
64857;SDS011;51335;51.148;6.950;2022-08-19T02:08:29;18.35;;;13.02;;
64857;SDS011;51335;51.148;6.950;2022-08-19T02:09:00;17.92;;;12.90;;
64857;SDS011;51335;51.148;6.950;2022-08-19T02:09:32;16.42;;;13.10;;
64857;SDS011;51335;51.148;6.950;2022-08-19T02:10:05;14.82;;;12.57;;
64857;SDS011;51335;51.148;6.950;2022-08-19T02:10:40;18.00;;;12.32;;
64857;SDS011;51335;51.148;6.950;2022-08-19T02:11:18;15.07;;;12.60;;
64857;SDS011;51335;51.148;6.950;2022-08-19T02:11:53;16.98;;;12.45;;
64857;SDS011;51335;51.148;6.950;2022-08-19T02:12:24;13.50;;;12.10;;
64857;SDS011;51335;51.148;6.950;2022-08-19T02:12:54;14.85;;;11.80;;
64857;SDS011;51335;51.148;6.950;2022-08-19T02:13:24;13.82;;;12.32;;
64857;SDS011;51335;51.148;6.950;2022-08-19T02:13:56;15.63;;;11.85;;
64857;SDS011;51335;51.148;6.950;2022-08-19T02:14:26;13.90;;;11.77;;
64857;SDS011;51335;51.148;6.950;2022-08-19T02:14:57;13.63;;;12.27;;
64857;SDS011;51335;51.148;6.950;2022-08-19T02:15:29;14.50;;;12.20;;
64857;SDS011;51335;51.148;6.950;2022-08-19T02:15:59;15.10;;;12.68;;
64857;SDS011;51335;51.148;6.950;2022-08-19T02:16:30;19.50;;;12.65;;
64857;SDS011;51335;51.148;6.950;2022-08-19T02:17:00;16.23;;;12.73;;
64857;SDS011;51335;51.148;6.950;2022-08-19T02:17:31;16.38;;;12.57;;
64857;SDS011;51335;51.148;6.950;2022-08-19T02:18:01;15.25;;;12.52;;
64857;SDS011;51335;51.148;6.950;2022-08-19T02:18:31;16.10;;;12.52;;
64857;SDS011;51335;51.148;6.950;2022-08-19T02:19:02;16.60;;;12.57;;
64857;SDS011;51335;51.148;6.950;2022-08-19T02:19:33;16.55;;;11.90;;
64857;SDS011;51335;51.148;6.950;2022-08-19T02:20:03;14.27;;;12.25;;
64857;SDS011;51335;51.148;6.950;2022-08-19T02:20:34;15.38;;;12.35;;
64857;SDS011;51335;51.148;6.950;2022-08-19T02:21:06;18.13;;;13.10;;
64857;SDS011;51335;51.148;6.950;2022-08-19T02:21:36;13.73;;;11.40;;
64857;SDS011;51335;51.148;6.950;2022-08-19T02:22:06;14.75;;;13.07;;
64857;SDS011;51335;51.148;6.950;2022-08-19T02:22:36;15.23;;;12.52;;
64857;SDS011;51335;51.148;6.950;2022-08-19T02:23:07;15.43;;;12.93;;
64857;SDS011;51335;51.148;6.950;2022-08-19T02:23:38;15.80;;;12.70;;
64857;SDS011;51335;51.148;6.950;2022-08-19T02:24:08;16.48;;;12.73;;
64857;SDS011;51335;51.148;6.950;2022-08-19T02:24:38;15.65;;;12.77;;
64857;SDS011;51335;51.148;6.950;2022-08-19T02:25:10;15.27;;;12.65;;
64857;SDS011;51335;51.148;6.950;2022-08-19T02:25:42;17.15;;;12.23;;
64857;SDS011;51335;51.148;6.950;2022-08-19T02:26:14;12.93;;;11.55;;
64857;SDS011;51335;51.148;6.950;2022-08-19T02:26:45;15.25;;;12.25;;
64857;SDS011;51335;51.148;6.950;2022-08-19T02:27:15;14.07;;;12.27;;
64857;SDS011;51335;51.148;6.950;2022-08-19T02:27:45;18.00;;;12.35;;
64857;SDS011;51335;51.148;6.950;2022-08-19T02:28:16;15.90;;;12.10;;
64857;SDS011;51335;51.148;6.950;2022-08-19T02:28:46;14.70;;;11.80;;
64857;SDS011;51335;51.148;6.950;2022-08-19T02:29:17;14.05;;;12.00;;
64857;SDS011;51335;51.148;6.950;2022-08-19T02:29:47;14.55;;;11.80;;
64857;SDS011;51335;51.148;6.950;2022-08-19T02:30:19;12.82;;;11.45;;
64857;SDS011;51335;51.148;6.950;2022-08-19T02:30:50;12.73;;;11.30;;
64857;SDS011;51335;51.148;6.950;2022-08-19T02:31:20;12.98;;;11.68;;
64857;SDS011;51335;51.148;6.950;2022-08-19T02:31:52;12.23;;;10.93;;
64857;SDS011;51335;51.148;6.950;2022-08-19T02:32:23;16.88;;;10.77;;
64857;SDS011;51335;51.148;6.950;2022-08-19T02:32:53;12.27;;;10.85;;
64857;SDS011;51335;51.148;6.950;2022-08-19T02:33:23;13.00;;;11.05;;
64857;SDS011;51335;51.148;6.950;2022-08-19T02:33:54;10.85;;;9.55;;
64857;SDS011;51335;51.148;6.950;2022-08-19T02:34:26;14.90;;;10.55;;
64857;SDS011;51335;51.148;6.950;2022-08-19T02:34:56;12.20;;;10.30;;
64857;SDS011;51335;51.148;6.950;2022-08-19T02:35:26;13.07;;;10.75;;
64857;SDS011;51335;51.148;6.950;2022-08-19T02:35:56;13.30;;;10.73;;
64857;SDS011;51335;51.148;6.950;2022-08-19T02:36:27;15.77;;;10.70;;
64857;SDS011;51335;51.148;6.950;2022-08-19T02:36:57;12.40;;;10.20;;
64857;SDS011;51335;51.148;6.950;2022-08-19T02:37:27;13.90;;;10.57;;
64857;SDS011;51335;51.148;6.950;2022-08-19T02:37:58;12.73;;;10.23;;
64857;SDS011;51335;51.148;6.950;2022-08-19T02:38:28;11.98;;;9.88;;
64857;SDS011;51335;51.148;6.950;2022-08-19T02:38:59;14.63;;;9.90;;
64857;SDS011;51335;51.148;6.950;2022-08-19T02:39:29;13.32;;;9.63;;
64857;SDS011;51335;51.148;6.950;2022-08-19T02:40:00;11.63;;;10.07;;
64857;SDS011;51335;51.148;6.950;2022-08-19T02:40:30;13.70;;;10.07;;
64857;SDS011;51335;51.148;6.950;2022-08-19T02:41:03;14.43;;;10.25;;
64857;SDS011;51335;51.148;6.950;2022-08-19T02:41:36;10.80;;;9.70;;
64857;SDS011;51335;51.148;6.950;2022-08-19T02:42:06;13.00;;;10.25;;
64857;SDS011;51335;51.148;6.950;2022-08-19T02:42:37;12.95;;;9.73;;
64857;SDS011;51335;51.148;6.950;2022-08-19T02:43:07;13.57;;;9.95;;
64857;SDS011;51335;51.148;6.950;2022-08-19T02:43:38;13.43;;;9.77;;
64857;SDS011;51335;51.148;6.950;2022-08-19T02:44:09;13.93;;;10.20;;
64857;SDS011;51335;51.148;6.950;2022-08-19T02:44:39;16.90;;;10.48;;
64857;SDS011;51335;51.148;6.950;2022-08-19T02:45:09;12.82;;;10.45;;
64857;SDS011;51335;51.148;6.950;2022-08-19T02:45:40;18.65;;;11.82;;
64857;SDS011;51335;51.148;6.950;2022-08-19T02:46:14;17.83;;;11.63;;
64857;SDS011;51335;51.148;6.950;2022-08-19T02:46:45;12.85;;;11.07;;
64857;SDS011;51335;51.148;6.950;2022-08-19T02:47:17;13.98;;;11.20;;
64857;SDS011;51335;51.148;6.950;2022-08-19T02:47:48;13.98;;;10.75;;
64857;SDS011;51335;51.148;6.950;2022-08-19T02:48:18;12.07;;;10.10;;
64857;SDS011;51335;51.148;6.950;2022-08-19T02:48:51;15.45;;;11.10;;
64857;SDS011;51335;51.148;6.950;2022-08-19T02:49:23;13.48;;;11.02;;
64857;SDS011;51335;51.148;6.950;2022-08-19T02:49:53;13.00;;;10.55;;
64857;SDS011;51335;51.148;6.950;2022-08-19T02:50:23;13.20;;;10.90;;
64857;SDS011;51335;51.148;6.950;2022-08-19T02:50:54;12.77;;;11.13;;
64857;SDS011;51335;51.148;6.950;2022-08-19T02:51:25;12.55;;;11.25;;
64857;SDS011;51335;51.148;6.950;2022-08-19T02:51:58;13.13;;;11.18;;
64857;SDS011;51335;51.148;6.950;2022-08-19T02:52:29;12.25;;;10.95;;
64857;SDS011;51335;51.148;6.950;2022-08-19T02:53:01;13.77;;;11.40;;
64857;SDS011;51335;51.148;6.950;2022-08-19T02:53:31;13.02;;;11.27;;
64857;SDS011;51335;51.148;6.950;2022-08-19T02:54:02;13.20;;;11.70;;
64857;SDS011;51335;51.148;6.950;2022-08-19T02:54:33;12.50;;;11.20;;
64857;SDS011;51335;51.148;6.950;2022-08-19T02:55:04;15.40;;;10.82;;
64857;SDS011;51335;51.148;6.950;2022-08-19T02:55:35;12.27;;;10.75;;
64857;SDS011;51335;51.148;6.950;2022-08-19T02:56:06;15.23;;;11.55;;
64857;SDS011;51335;51.148;6.950;2022-08-19T02:56:38;14.00;;;12.50;;
64857;SDS011;51335;51.148;6.950;2022-08-19T02:57:09;14.13;;;12.20;;
64857;SDS011;51335;51.148;6.950;2022-08-19T02:57:40;17.20;;;12.20;;
64857;SDS011;51335;51.148;6.950;2022-08-19T02:58:10;17.27;;;12.55;;
64857;SDS011;51335;51.148;6.950;2022-08-19T02:58:40;13.48;;;11.30;;
64857;SDS011;51335;51.148;6.950;2022-08-19T02:59:11;15.18;;;12.25;;
64857;SDS011;51335;51.148;6.950;2022-08-19T02:59:41;14.93;;;12.07;;
64857;SDS011;51335;51.148;6.950;2022-08-19T03:00:12;12.88;;;11.63;;
64857;SDS011;51335;51.148;6.950;2022-08-19T03:00:44;13.23;;;11.35;;
64857;SDS011;51335;51.148;6.950;2022-08-19T03:01:19;17.95;;;11.20;;
64857;SDS011;51335;51.148;6.950;2022-08-19T03:02:00;13.40;;;10.55;;
64857;SDS011;51335;51.148;6.950;2022-08-19T03:02:31;11.77;;;10.35;;
64857;SDS011;51335;51.148;6.950;2022-08-19T03:03:01;11.73;;;10.10;;
64857;SDS011;51335;51.148;6.950;2022-08-19T03:03:31;14.57;;;11.50;;
64857;SDS011;51335;51.148;6.950;2022-08-19T03:04:03;13.13;;;10.95;;
64857;SDS011;51335;51.148;6.950;2022-08-19T03:04:35;12.93;;;11.02;;
64857;SDS011;51335;51.148;6.950;2022-08-19T03:05:06;13.63;;;11.10;;
64857;SDS011;51335;51.148;6.950;2022-08-19T03:05:38;13.30;;;10.40;;